Time,TemperatureF,DewpointF,PressureIn,WindDirection,WindDirectionDegrees,WindSpeedMPH,WindSpeedGustMPH,Humidity,HourlyPrecipIn,Conditions,Clouds,dailyrainin,SoftwareType,DateUTC
2013-09-28 00:09:00,53.8,52.0,30.18,East,82,0.0,2.0,92,0.00,,,0.00,weatherlink.com 1.10,2013-09-28 04:09:00,
2013-09-28 00:24:00,53.5,51.0,30.18,East,83,2.0,3.0,92,0.00,,,0.00,weatherlink.com 1.10,2013-09-28 04:24:00,
2013-09-28 00:39:00,53.9,52.0,30.18,South,173,2.0,4.0,92,0.00,,,0.00,weatherlink.com 1.10,2013-09-28 04:39:00,
2013-09-28 00:54:00,54.1,52.0,30.18,South,175,3.0,5.0,91,0.00,,,0.00,weatherlink.com 1.10,2013-09-28 04:54:00,
2013-09-28 01:09:00,54.8,52.0,30.18,SSE,147,2.0,5.0,90,0.00,,,0.00,weatherlink.com 1.10,2013-09-28 05:09:00,
2013-09-28 01:24:00,54.9,52.0,30.18,SE,146,2.0,6.0,89,0.00,,,0.00,weatherlink.com 1.10,2013-09-28 05:24:00,
2013-09-28 01:39:00,54.6,52.0,30.18,SSE,149,0.0,7.0,89,0.00,,,0.00,weatherlink.com 1.10,2013-09-28 05:39:00,
2013-09-28 01:54:00,54.1,51.0,30.19,SSE,155,2.0,7.0,90,0.00,,,0.00,weatherlink.com 1.10,2013-09-28 05:54:00,
2013-09-28 02:10:00,54.2,51.0,30.19,SSE,151,3.0,8.0,90,0.00,,,0.00,weatherlink.com 1.10,2013-09-28 06:10:00,
2013-09-28 02:25:00,54.2,51.0,30.19,SE,142,1.0,7.0,90,0.00,,,0.00,weatherlink.com 1.10,2013-09-28 06:25:00,
2013-09-28 02:40:00,54.0,51.0,30.19,SE,143,0.0,6.0,89,0.00,,,0.00,weatherlink.com 1.10,2013-09-28 06:40:00,
2013-09-28 02:55:00,54.2,51.0,30.19,SE,126,0.0,7.0,88,0.00,,,0.00,weatherlink.com 1.10,2013-09-28 06:55:00,
2013-09-28 03:10:00,54.0,50.0,30.19,SE,128,1.0,6.0,87,0.00,,,0.00,weatherlink.com 1.10,2013-09-28 07:10:00,
2013-09-28 03:25:00,53.7,50.0,30.19,SSE,165,0.0,7.0,87,0.00,,,0.00,weatherlink.com 1.10,2013-09-28 07:25:00,
2013-09-28 03:40:00,53.3,50.0,30.19,SSE,147,0.0,3.0,87,0.00,,,0.00,weatherlink.com 1.10,2013-09-28 07:40:00,
2013-09-28 03:55:00,52.6,50.0,30.19,SSE,163,2.0,7.0,89,0.00,,,0.00,weatherlink.com 1.10,2013-09-28 07:55:00,
2013-09-28 04:10:00,51.9,49.0,30.18,SSE,161,1.0,5.0,89,0.00,,,0.00,weatherlink.com 1.10,2013-09-28 08:10:00,
2013-09-28 04:25:00,52.1,49.0,30.19,SSE,155,2.0,4.0,89,0.00,,,0.00,weatherlink.com 1.10,2013-09-28 08:25:00,
2013-09-28 04:40:00,51.8,49.0,30.19,SSE,149,0.0,5.0,89,0.00,,,0.00,weatherlink.com 1.10,2013-09-28 08:40:00,
2013-09-28 04:55:00,51.6,49.0,30.19,SSE,159,1.0,5.0,90,0.00,,,0.00,weatherlink.com 1.10,2013-09-28 08:55:00,
2013-09-28 05:10:00,51.5,49.0,30.19,SSE,153,3.0,5.0,90,0.00,,,0.00,weatherlink.com 1.10,2013-09-28 09:10:00,
2013-09-28 05:25:00,51.3,49.0,30.20,SSE,152,0.0,5.0,91,0.00,,,0.00,weatherlink.com 1.10,2013-09-28 09:25:00,
2013-09-28 05:40:00,50.9,48.0,30.19,SSE,155,3.0,4.0,90,0.00,,,0.00,weatherlink.com 1.10,2013-09-28 09:40:00,
2013-09-28 05:55:00,51.0,49.0,30.20,South,169,2.0,4.0,91,0.00,,,0.00,weatherlink.com 1.10,2013-09-28 09:55:00,
2013-09-28 06:10:00,51.2,49.0,30.20,South,182,4.0,5.0,91,0.00,,,0.00,weatherlink.com 1.10,2013-09-28 10:10:00,
2013-09-28 06:25:00,51.7,49.0,30.20,South,171,3.0,6.0,90,0.00,,,0.00,weatherlink.com 1.10,2013-09-28 10:25:00,
2013-09-28 06:40:00,52.0,49.0,30.20,SSE,162,3.0,5.0,89,0.00,,,0.00,weatherlink.com 1.10,2013-09-28 10:40:00,
2013-09-28 06:55:00,51.7,49.0,30.21,South,175,0.0,5.0,89,0.00,,,0.00,weatherlink.com 1.10,2013-09-28 10:55:00,
2013-09-28 07:10:00,51.6,49.0,30.21,SSE,164,0.0,4.0,90,0.00,,,0.00,weatherlink.com 1.10,2013-09-28 11:10:00,
2013-09-28 07:25:00,51.5,49.0,30.21,South,171,0.0,4.0,90,0.00,,,0.00,weatherlink.com 1.10,2013-09-28 11:25:00,
2013-09-28 07:40:00,51.7,49.0,30.22,SSE,162,3.0,5.0,90,0.00,,,0.00,weatherlink.com 1.10,2013-09-28 11:40:00,
2013-09-28 07:55:00,52.2,49.0,30.22,South,169,3.0,7.0,90,0.00,,,0.00,weatherlink.com 1.10,2013-09-28 11:55:00,
2013-09-28 08:10:00,52.9,50.0,30.22,South,179,3.0,8.0,90,0.00,,,0.00,weatherlink.com 1.10,2013-09-28 12:10:00,
2013-09-28 08:25:00,53.9,51.0,30.22,SSE,155,6.0,9.0,89,0.00,,,0.00,weatherlink.com 1.10,2013-09-28 12:25:00,
2013-09-28 08:40:00,54.9,52.0,30.22,South,169,5.0,8.0,88,0.00,,,0.00,weatherlink.com 1.10,2013-09-28 12:40:00,
2013-09-28 08:55:00,55.9,52.0,30.22,South,190,3.0,8.0,88,0.00,,,0.00,weatherlink.com 1.10,2013-09-28 12:55:00,
2013-09-28 09:10:00,57.3,53.0,30.23,SSE,163,3.0,7.0,86,0.00,,,0.00,weatherlink.com 1.10,2013-09-28 13:10:00,
2013-09-28 09:25:00,58.3,54.0,30.23,SSE,153,3.0,8.0,85,0.00,,,0.00,weatherlink.com 1.10,2013-09-28 13:25:00,
2013-09-28 09:40:00,58.7,54.0,30.23,South,175,6.0,10.0,84,0.00,,,0.00,weatherlink.com 1.10,2013-09-28 13:40:00,
2013-09-28 09:55:00,59.4,54.0,30.23,South,176,6.0,9.0,83,0.00,,,0.00,weatherlink.com 1.10,2013-09-28 13:55:00,
2013-09-28 10:10:00,60.7,55.0,30.23,South,176,3.0,11.0,81,0.00,,,0.00,weatherlink.com 1.10,2013-09-28 14:10:00,
2013-09-28 10:25:00,61.2,55.0,30.23,SSW,202,4.0,13.0,80,0.00,,,0.00,weatherlink.com 1.10,2013-09-28 14:25:00,
2013-09-28 10:40:00,62.5,55.0,30.23,SSE,159,5.0,11.0,77,0.00,,,0.00,weatherlink.com 1.10,2013-09-28 14:40:00,
2013-09-28 10:56:00,63.2,54.0,30.23,SSE,153,3.0,12.0,73,0.00,,,0.00,weatherlink.com 1.10,2013-09-28 14:56:00,
2013-09-28 11:11:00,63.8,55.0,30.22,South,175,3.0,10.0,72,0.00,,,0.00,weatherlink.com 1.10,2013-09-28 15:11:00,
2013-09-28 11:26:00,64.5,55.0,30.22,South,188,5.0,11.0,71,0.00,,,0.00,weatherlink.com 1.10,2013-09-28 15:26:00,
2013-09-28 11:41:00,64.8,54.0,30.22,SSE,149,7.0,14.0,69,0.00,,,0.00,weatherlink.com 1.10,2013-09-28 15:41:00,
2013-09-28 11:56:00,66.0,55.0,30.21,SSE,168,7.0,12.0,67,0.00,,,0.00,weatherlink.com 1.10,2013-09-28 15:56:00,
2013-09-28 12:11:00,66.4,55.0,30.21,SSE,162,3.0,12.0,66,0.00,,,0.00,weatherlink.com 1.10,2013-09-28 16:11:00,
2013-09-28 12:26:00,66.9,54.0,30.21,South,180,5.0,13.0,63,0.00,,,0.00,weatherlink.com 1.10,2013-09-28 16:26:00,
2013-09-28 12:41:00,67.6,53.0,30.20,SE,143,13.0,14.0,59,0.00,,,0.00,weatherlink.com 1.10,2013-09-28 16:41:00,
2013-09-28 12:56:00,67.8,54.0,30.20,SSE,150,9.0,12.0,62,0.00,,,0.00,weatherlink.com 1.10,2013-09-28 16:56:00,
2013-09-28 13:11:00,69.4,55.0,30.20,SE,140,1.0,11.0,60,0.00,,,0.00,weatherlink.com 1.10,2013-09-28 17:11:00,
2013-09-28 13:26:00,68.9,54.0,30.20,SSE,163,5.0,14.0,59,0.00,,,0.00,weatherlink.com 1.10,2013-09-28 17:26:00,
2013-09-28 13:41:00,68.8,53.0,30.19,South,189,8.0,14.0,58,0.00,,,0.00,weatherlink.com 1.10,2013-09-28 17:41:00,
2013-09-28 13:56:00,69.4,54.0,30.18,ESE,108,4.0,12.0,58,0.00,,,0.00,weatherlink.com 1.10,2013-09-28 17:56:00,
2013-09-28 14:11:00,70.4,53.0,30.17,SSE,150,4.0,12.0,54,0.00,,,0.00,weatherlink.com 1.10,2013-09-28 18:11:00,
2013-09-28 14:26:00,70.5,53.0,30.16,SSE,167,8.0,14.0,55,0.00,,,0.00,weatherlink.com 1.10,2013-09-28 18:26:00,
2013-09-28 14:41:00,70.5,53.0,30.16,South,171,8.0,11.0,55,0.00,,,0.00,weatherlink.com 1.10,2013-09-28 18:41:00,
2013-09-28 14:56:00,71.6,53.0,30.15,SE,129,3.0,11.0,53,0.00,,,0.00,weatherlink.com 1.10,2013-09-28 18:56:00,
2013-09-28 15:11:00,71.6,53.0,30.15,SSE,158,7.0,9.0,52,0.00,,,0.00,weatherlink.com 1.10,2013-09-28 19:11:00,
2013-09-28 15:26:00,71.0,53.0,30.15,South,187,9.0,15.0,54,0.00,,,0.00,weatherlink.com 1.10,2013-09-28 19:26:00,
2013-09-28 15:41:00,71.1,53.0,30.14,South,182,12.0,15.0,53,0.00,,,0.00,weatherlink.com 1.10,2013-09-28 19:41:00,
2013-09-28 15:56:00,71.7,53.0,30.14,SSE,162,11.0,12.0,52,0.00,,,0.00,weatherlink.com 1.10,2013-09-28 19:56:00,
2013-09-28 16:11:00,71.1,54.0,30.13,SE,126,0.0,12.0,55,0.00,,,0.00,weatherlink.com 1.10,2013-09-28 20:11:00,
2013-09-28 16:26:00,71.3,54.0,30.12,SSE,163,4.0,13.0,55,0.00,,,0.00,weatherlink.com 1.10,2013-09-28 20:26:00,
2013-09-28 16:41:00,71.2,54.0,30.12,SSE,162,4.0,13.0,54,0.00,,,0.00,weatherlink.com 1.10,2013-09-28 20:41:00,
2013-09-28 16:56:00,70.6,53.0,30.12,South,174,6.0,16.0,54,0.00,,,0.00,weatherlink.com 1.10,2013-09-28 20:56:00,
2013-09-28 17:11:00,70.2,54.0,30.12,SE,139,5.0,16.0,56,0.00,,,0.00,weatherlink.com 1.10,2013-09-28 21:11:00,
2013-09-28 17:26:00,69.8,54.0,30.12,SSE,159,4.0,11.0,57,0.00,,,0.00,weatherlink.com 1.10,2013-09-28 21:26:00,
2013-09-28 17:41:00,69.4,54.0,30.12,SSE,148,1.0,10.0,58,0.00,,,0.00,weatherlink.com 1.10,2013-09-28 21:41:00,
2013-09-28 17:56:00,69.2,54.0,30.12,SSW,193,5.0,13.0,59,0.00,,,0.00,weatherlink.com 1.10,2013-09-28 21:56:00,
2013-09-28 18:11:00,68.1,54.0,30.12,South,169,6.0,9.0,61,0.00,,,0.00,weatherlink.com 1.10,2013-09-28 22:11:00,
2013-09-28 18:26:00,67.6,54.0,30.12,South,175,4.0,9.0,62,0.00,,,0.00,weatherlink.com 1.10,2013-09-28 22:26:00,
2013-09-28 18:41:00,66.2,54.0,30.13,ESE,122,0.0,6.0,65,0.00,,,0.00,weatherlink.com 1.10,2013-09-28 22:41:00,
2013-09-28 18:56:00,64.6,54.0,30.13,SSE,148,4.0,6.0,68,0.00,,,0.00,weatherlink.com 1.10,2013-09-28 22:56:00,
2013-09-28 19:11:00,62.9,53.0,30.13,SE,134,4.0,7.0,71,0.00,,,0.00,weatherlink.com 1.10,2013-09-28 23:11:00,
2013-09-28 19:26:00,61.5,53.0,30.13,South,188,0.0,5.0,74,0.00,,,0.00,weatherlink.com 1.10,2013-09-28 23:26:00,
2013-09-28 19:41:00,60.7,53.0,30.13,SE,146,0.0,3.0,75,0.00,,,0.00,weatherlink.com 1.10,2013-09-28 23:41:00,
2013-09-28 19:56:00,60.1,53.0,30.13,SSE,149,2.0,7.0,76,0.00,,,0.00,weatherlink.com 1.10,2013-09-28 23:56:00,
2013-09-28 20:11:00,59.5,52.0,30.13,SSE,150,2.0,7.0,77,0.00,,,0.00,weatherlink.com 1.10,2013-09-29 00:11:00,
2013-09-28 20:26:00,59.3,52.0,30.13,SE,127,4.0,12.0,77,0.00,,,0.00,weatherlink.com 1.10,2013-09-29 00:26:00,
2013-09-28 20:41:00,59.2,52.0,30.13,SSW,194,3.0,9.0,76,0.00,,,0.00,weatherlink.com 1.10,2013-09-29 00:41:00,
2013-09-28 20:56:00,58.9,51.0,30.13,SE,131,3.0,11.0,76,0.00,,,0.00,weatherlink.com 1.10,2013-09-29 00:56:00,
2013-09-28 21:11:00,58.6,51.0,30.13,ESE,121,0.0,11.0,76,0.00,,,0.00,weatherlink.com 1.10,2013-09-29 01:11:00,
2013-09-28 21:26:00,58.1,51.0,30.13,SSE,150,1.0,8.0,77,0.00,,,0.00,weatherlink.com 1.10,2013-09-29 01:26:00,
2013-09-28 21:41:00,57.3,51.0,30.13,SSE,157,7.0,11.0,79,0.00,,,0.00,weatherlink.com 1.10,2013-09-29 01:41:00,
2013-09-28 21:56:00,57.0,51.0,30.13,South,179,2.0,8.0,80,0.00,,,0.00,weatherlink.com 1.10,2013-09-29 01:56:00,
2013-09-28 22:11:00,56.6,51.0,30.13,South,176,2.0,10.0,80,0.00,,,0.00,weatherlink.com 1.10,2013-09-29 02:11:00,
2013-09-28 22:26:00,56.3,50.0,30.12,SSE,162,6.0,10.0,80,0.00,,,0.00,weatherlink.com 1.10,2013-09-29 02:26:00,
2013-09-28 22:41:00,56.0,50.0,30.12,SSE,155,6.0,13.0,80,0.00,,,0.00,weatherlink.com 1.10,2013-09-29 02:41:00,
2013-09-28 22:56:00,55.8,50.0,30.11,South,176,9.0,15.0,80,0.00,,,0.00,weatherlink.com 1.10,2013-09-29 02:56:00,
2013-09-28 23:11:00,55.4,49.0,30.11,SSE,161,5.0,15.0,80,0.00,,,0.00,weatherlink.com 1.10,2013-09-29 03:11:00,
2013-09-28 23:26:00,55.2,49.0,30.10,SSE,167,6.0,13.0,80,0.00,,,0.00,weatherlink.com 1.10,2013-09-29 03:26:00,
2013-09-28 23:41:00,55.0,49.0,30.10,South,182,11.0,14.0,80,0.00,,,0.00,weatherlink.com 1.10,2013-09-29 03:41:00,
2013-09-28 23:56:00,54.8,49.0,30.11,South,182,8.0,17.0,80,0.00,,,0.00,weatherlink.com 1.10,2013-09-29 03:56:00,